Time;durP1;ratioP1;P1;durP2;ratioP2;P2;SDS_P1;SDS_P2;PMS_P1;PMS_P2;Temp;Humidity;BMP_temperature;BMP_pressure;BME280_temperature;BME280_humidity;BME280_pressure;Samples;Min_cycle;Max_cycle;Signal;HPM_P1;HPM_P2
2022/01/13 00:02:45;;;;;;;95.07;37.83;;;2.10;99.90;;;;;;12383368;28;20054;-85
2022/01/13 00:08:47;;;;;;;101.15;40.13;;;2.10;99.90;;;;;;12384496;28;20050;-85
2022/01/13 00:15:07;;;;;;;91.60;37.50;;;2.10;99.90;;;;;;12427713;28;20081;-85
2022/01/13 00:21:16;;;;;;;95.97;40.45;;;2.20;99.90;;;;;;12399616;28;20054;-84
2022/01/13 00:27:19;;;;;;;90.35;36.60;;;2.10;99.90;;;;;;12409961;28;20041;-85
2022/01/13 00:33:24;;;;;;;98.95;39.25;;;2.10;99.90;;;;;;12384175;28;20140;-83
2022/01/13 00:39:26;;;;;;;100.88;40.05;;;2.20;99.90;;;;;;12381124;28;20050;-86
2022/01/13 00:45:28;;;;;;;99.22;39.50;;;2.20;99.90;;;;;;12398921;28;20042;-83
2022/01/13 00:51:30;;;;;;;99.90;38.38;;;2.20;99.90;;;;;;12392585;28;20491;-84
2022/01/13 00:57:32;;;;;;;96.97;37.95;;;2.20;99.90;;;;;;12392181;28;21119;-85
2022/01/13 01:03:35;;;;;;;105.57;39.92;;;2.20;99.90;;;;;;12398581;28;20054;-85
2022/01/13 01:09:40;;;;;;;103.18;39.90;;;2.30;99.90;;;;;;12390270;28;20105;-84
2022/01/13 01:15:47;;;;;;;87.90;35.67;;;2.20;99.90;;;;;;12390123;28;20046;-85
2022/01/13 01:22:14;;;;;;;87.97;35.90;;;2.30;99.90;;;;;;12394846;28;20065;-83
2022/01/13 01:28:17;;;;;;;82.45;33.72;;;2.30;99.90;;;;;;12392013;28;20042;-84
2022/01/13 01:40:25;;;;;;;84.28;32.33;;;2.30;99.90;;;;;;12400241;28;20620;-83
2022/01/13 01:46:27;;;;;;;81.63;31.83;;;2.30;99.90;;;;;;12381104;28;20046;-84
2022/01/13 01:52:29;;;;;;;82.63;28.42;;;2.30;99.90;;;;;;12393868;28;20486;-85
2022/01/13 01:58:32;;;;;;;76.72;28.35;;;2.30;99.90;;;;;;12390978;28;20051;-85
2022/01/13 02:04:36;;;;;;;83.33;29.93;;;2.30;99.90;;;;;;12397839;28;20042;-83
2022/01/13 02:10:37;;;;;;;83.25;29.23;;;2.20;99.90;;;;;;12387934;28;20730;-85
2022/01/13 02:16:46;;;;;;;81.57;33.08;;;2.20;99.90;;;;;;12379659;28;20066;-84
2022/01/13 02:22:49;;;;;;;80.28;28.95;;;2.30;99.90;;;;;;12381822;28;20072;-84
2022/01/13 02:28:53;;;;;;;90.63;32.50;;;2.20;99.90;;;;;;12387435;28;20046;-84
2022/01/13 02:34:55;;;;;;;96.97;33.50;;;2.20;99.90;;;;;;12387383;28;20461;-85
2022/01/13 02:40:58;;;;;;;94.07;32.90;;;2.10;99.90;;;;;;12391925;28;20124;-84
2022/01/13 02:47:34;;;;;;;101.03;33.08;;;2.10;99.90;;;;;;12383247;28;20506;-86
2022/01/13 02:53:41;;;;;;;95.57;34.20;;;2.10;99.90;;;;;;12393395;28;20053;-85
2022/01/13 02:59:42;;;;;;;106.43;34.58;;;2.10;99.90;;;;;;12391115;28;20157;-84
2022/01/13 03:05:45;;;;;;;107.13;35.08;;;2.10;99.90;;;;;;12378586;28;20049;-83
2022/01/13 03:11:47;;;;;;;105.47;35.08;;;2.20;99.90;;;;;;12380128;28;20114;-85
2022/01/13 03:17:49;;;;;;;104.53;35.58;;;2.10;99.90;;;;;;12377014;28;20480;-83
2022/01/13 03:23:51;;;;;;;117.28;37.92;;;2.10;99.90;;;;;;12386318;28;20078;-85
2022/01/13 03:29:53;;;;;;;128.57;37.35;;;2.10;99.90;;;;;;12383076;28;20092;-85
2022/01/13 03:35:56;;;;;;;111.47;35.47;;;2.10;99.90;;;;;;12381375;28;20053;-85
2022/01/13 03:42:01;;;;;;;120.68;37.20;;;2.10;99.90;;;;;;12378318;28;20046;-84
2022/01/13 03:48:06;;;;;;;124.78;37.67;;;2.10;99.90;;;;;;12389608;28;20968;-84
2022/01/13 03:54:26;;;;;;;;;;;2.10;99.90;;;;;;12383493;28;20113;-84
2022/01/13 04:01:05;;;;;;;115.35;36.95;;;2.10;99.90;;;;;;12385871;28;20305;-85
2022/01/13 04:07:11;;;;;;;130.80;37.92;;;2.10;99.90;;;;;;12383517;28;20085;-85
2022/01/13 04:13:33;;;;;;;125.03;37.83;;;2.10;99.90;;;;;;12405463;28;20151;-84
2022/01/13 04:19:35;;;;;;;122.50;37.08;;;2.10;99.90;;;;;;12409561;28;20062;-85
2022/01/13 04:25:37;;;;;;;137.20;39.50;;;2.10;99.90;;;;;;12389401;28;20131;-84
2022/01/13 04:31:41;;;;;;;128.98;38.95;;;2.10;99.90;;;;;;12387220;28;20080;-84
2022/01/13 04:37:42;;;;;;;131.63;38.65;;;2.10;99.90;;;;;;12390994;28;20671;-84
2022/01/13 04:43:44;;;;;;;130.35;36.17;;;2.10;99.90;;;;;;12399066;28;20100;-85
2022/01/13 04:49:46;;;;;;;120.30;35.85;;;2.20;99.90;;;;;;12395874;28;20046;-86
2022/01/13 04:55:57;;;;;;;113.13;31.52;;;2.10;99.90;;;;;;12384469;28;20489;-84
2022/01/13 05:02:00;;;;;;;124.43;33.30;;;2.10;99.90;;;;;;12411254;28;20784;-84
2022/01/13 05:08:03;;;;;;;128.47;33.30;;;2.10;99.90;;;;;;12399731;28;20112;-85
2022/01/13 05:14:05;;;;;;;120.60;32.05;;;2.10;99.90;;;;;;12382805;28;20111;-85
2022/01/13 05:20:20;;;;;;;124.43;31.33;;;2.10;99.90;;;;;;12380927;28;20498;-83
2022/01/13 05:26:23;;;;;;;104.55;28.67;;;2.20;99.90;;;;;;12399496;28;20097;-85
2022/01/13 05:32:25;;;;;;;108.82;29.30;;;2.10;99.90;;;;;;12377723;28;20596;-85
2022/01/13 05:38:27;;;;;;;120.40;29.45;;;2.20;99.90;;;;;;12397152;28;20134;-85
2022/01/13 05:44:29;;;;;;;122.00;30.30;;;2.20;99.90;;;;;;12406082;28;20107;-85
2022/01/13 05:50:31;;;;;;;109.00;28.30;;;2.20;99.90;;;;;;12385287;28;20054;-85
2022/01/13 05:56:33;;;;;;;119.50;29.88;;;2.10;99.90;;;;;;12402145;28;20088;-85
2022/01/13 06:02:35;;;;;;;123.68;28.45;;;2.10;99.90;;;;;;12384787;28;20058;-86
2022/01/13 06:08:37;;;;;;;113.00;27.35;;;2.10;99.90;;;;;;12419970;28;20057;-84
2022/01/13 06:14:38;;;;;;;134.75;27.77;;;2.10;99.90;;;;;;12379265;28;20146;-84
2022/01/13 06:20:41;;;;;;;115.45;28.00;;;2.20;99.90;;;;;;12392833;28;20091;-85
2022/01/13 06:26:43;;;;;;;118.25;27.75;;;2.20;99.90;;;;;;12379427;28;20876;-83
2022/01/13 06:32:46;;;;;;;136.38;28.92;;;2.20;99.90;;;;;;12397424;28;20049;-85
2022/01/13 06:38:50;;;;;;;143.77;30.10;;;2.20;99.90;;;;;;12389506;28;20050;-85
2022/01/13 06:44:52;;;;;;;142.20;30.57;;;2.20;99.90;;;;;;12385368;28;20054;-86
2022/01/13 06:50:54;;;;;;;138.57;30.35;;;2.20;99.90;;;;;;12391472;28;20139;-84
2022/01/13 06:56:55;;;;;;;172.18;33.13;;;2.20;99.90;;;;;;12394420;28;20054;-85
2022/01/13 07:02:59;;;;;;;162.85;32.97;;;2.20;99.90;;;;;;12382255;28;20080;-84
2022/01/13 07:09:03;;;;;;;160.30;34.07;;;2.30;99.90;;;;;;12385621;28;20054;-84
2022/01/13 07:15:06;;;;;;;197.60;37.33;;;2.20;99.90;;;;;;12378376;28;20042;-85
2022/01/13 07:21:09;;;;;;;198.55;36.17;;;2.20;99.90;;;;;;12397038;28;20095;-85
2022/01/13 07:27:11;;;;;;;216.02;37.60;;;2.20;99.90;;;;;;12377410;28;20065;-85
2022/01/13 07:33:13;;;;;;;214.30;40.30;;;2.20;99.90;;;;;;12388560;28;20050;-84
2022/01/13 07:39:15;;;;;;;239.65;40.90;;;2.20;99.90;;;;;;12378486;28;20053;-85
2022/01/13 07:45:18;;;;;;;247.38;39.50;;;2.20;99.90;;;;;;12384406;28;20072;-85
2022/01/13 07:51:20;;;;;;;229.10;38.17;;;2.20;99.90;;;;;;12394520;28;20109;-84
2022/01/13 07:57:22;;;;;;;246.60;41.15;;;2.20;99.90;;;;;;12387996;28;20808;-84
2022/01/13 08:03:24;;;;;;;253.23;39.78;;;2.20;99.90;;;;;;12406722;28;20058;-84
2022/01/13 08:09:26;;;;;;;206.63;36.78;;;2.20;99.90;;;;;;12398811;28;20123;-84
2022/01/13 08:15:29;;;;;;;224.75;38.55;;;2.20;99.90;;;;;;12390394;28;20050;-85
2022/01/13 08:21:30;;;;;;;219.80;40.65;;;2.30;99.90;;;;;;12387996;28;20038;-84
2022/01/13 08:27:32;;;;;;;216.75;38.28;;;2.30;99.90;;;;;;12398303;28;20046;-85
2022/01/13 08:33:35;;;;;;;218.45;39.20;;;2.30;99.90;;;;;;12383690;28;20057;-85
2022/01/13 08:39:43;;;;;;;256.02;40.60;;;2.30;99.90;;;;;;12391968;28;20502;-84
2022/01/13 08:45:46;;;;;;;250.65;39.30;;;2.30;99.90;;;;;;12392641;28;20437;-85
2022/01/13 08:51:48;;;;;;;264.83;40.92;;;2.30;99.90;;;;;;12396531;28;20115;-85
2022/01/13 08:57:49;;;;;;;238.23;40.15;;;2.30;99.90;;;;;;12393039;28;20112;-86
2022/01/13 09:03:51;;;;;;;241.75;40.63;;;2.30;99.90;;;;;;12385680;28;20075;-84
2022/01/13 09:09:53;;;;;;;297.67;43.30;;;2.30;99.90;;;;;;12392611;28;20084;-85
2022/01/13 09:15:59;;;;;;;271.70;41.83;;;2.40;99.90;;;;;;12392333;28;20128;-85
2022/01/13 09:22:01;;;;;;;283.27;40.65;;;2.40;99.90;;;;;;12391602;28;20088;-84
2022/01/13 09:28:06;;;;;;;226.57;40.20;;;2.40;99.90;;;;;;12392870;28;20125;-85
2022/01/13 09:34:08;;;;;;;;;;;2.40;99.90;;;;;;12396159;28;20065;-85
2022/01/13 09:40:11;;;;;;;249.30;41.45;;;2.40;99.90;;;;;;12386918;28;20389;-85
2022/01/13 09:46:13;;;;;;;226.55;38.70;;;2.40;99.90;;;;;;12385935;28;20563;-84
2022/01/13 09:52:15;;;;;;;204.13;37.83;;;2.40;99.90;;;;;;12392850;28;20046;-85
2022/01/13 09:58:17;;;;;;;226.73;40.60;;;2.40;99.90;;;;;;12393379;28;20399;-85
2022/01/13 10:04:19;;;;;;;229.57;40.08;;;2.50;99.90;;;;;;12380768;28;20050;-85
2022/01/13 10:10:25;;;;;;;217.68;40.13;;;2.50;99.90;;;;;;12382349;28;20058;-84
2022/01/13 10:16:28;;;;;;;198.52;37.22;;;2.50;99.90;;;;;;12399592;28;20106;-84
2022/01/13 10:22:33;;;;;;;219.80;37.47;;;2.60;99.90;;;;;;12395135;28;20485;-85
2022/01/13 10:28:35;;;;;;;210.35;41.22;;;2.50;99.90;;;;;;12400893;28;20049;-84
2022/01/13 10:34:40;;;;;;;191.23;37.65;;;2.60;99.90;;;;;;12391983;28;20104;-85
2022/01/13 10:40:47;;;;;;;191.15;38.83;;;2.70;99.90;;;;;;12378701;28;20082;-85
2022/01/13 10:47:01;;;;;;;199.55;38.72;;;2.70;99.90;;;;;;12389818;28;20574;-85
2022/01/13 10:53:09;;;;;;;211.83;40.47;;;2.70;99.90;;;;;;12380404;28;20081;-86
2022/01/13 10:59:11;;;;;;;189.27;39.17;;;2.70;99.90;;;;;;12380072;28;20449;-85
2022/01/13 11:05:13;;;;;;;191.13;37.88;;;2.80;99.90;;;;;;12394926;28;20060;-85
2022/01/13 11:11:27;;;;;;;185.45;38.72;;;2.80;99.90;;;;;;12410528;28;20108;-86
2022/01/13 11:17:29;;;;;;;;;;;2.80;99.90;;;;;;12397088;28;20035;-85
2022/01/13 11:23:34;;;;;;;197.63;38.03;;;2.80;99.90;;;;;;12446746;28;19926;-86
2022/01/13 11:29:36;;;;;;;201.38;38.20;;;2.80;99.90;;;;;;12440140;28;20049;-85
2022/01/13 11:35:45;;;;;;;181.35;38.17;;;2.80;99.90;;;;;;12394728;28;20173;-85
2022/01/13 11:42:04;;;;;;;181.98;38.78;;;2.90;99.90;;;;;;12392924;28;20050;-85
2022/01/13 11:48:24;;;;;;;170.40;38.35;;;2.90;99.90;;;;;;12387453;28;20085;-85
2022/01/13 11:54:34;;;;;;;180.30;37.80;;;2.90;99.90;;;;;;12405183;28;20051;-85
2022/01/13 12:01:07;;;;;;;172.90;37.63;;;2.90;99.90;;;;;;12410870;28;20053;-85
2022/01/13 12:07:36;;;;;;;174.00;38.03;;;3.00;99.90;;;;;;12383284;28;20062;-85
2022/01/13 12:13:41;;;;;;;188.52;40.28;;;2.90;99.90;;;;;;12387772;28;20489;-85
2022/01/13 12:19:47;;;;;;;184.95;38.67;;;2.90;99.90;;;;;;12408747;28;20154;-85
2022/01/13 12:25:49;;;;;;;169.60;38.70;;;3.00;99.90;;;;;;12388660;28;20417;-85
2022/01/13 12:32:03;;;;;;;176.88;39.95;;;3.00;99.90;;;;;;12399330;28;20081;-85
2022/01/13 12:38:08;;;;;;;163.63;38.47;;;3.00;99.90;;;;;;12389200;28;20081;-85
2022/01/13 12:45:27;;;;;;;166.23;38.80;;;3.10;99.90;;;;;;12403887;28;20340;-85
2022/01/13 12:50:43;;;;;;;;;;;3.00;99.90;;;;;;12399974;28;20141;-86
2022/01/13 12:56:45;;;;;;;152.23;37.60;;;3.10;99.90;;;;;;12393619;28;19951;-85
2022/01/13 13:02:52;;;;;;;172.60;38.90;;;3.10;99.90;;;;;;12403809;28;20120;-86
2022/01/13 13:09:03;;;;;;;165.77;39.45;;;3.10;99.90;;;;;;12389336;28;20658;-85
2022/01/13 13:21:19;;;;;;;183.75;41.72;;;3.10;99.90;;;;;;12398004;28;20092;-85
2022/01/13 13:27:29;;;;;;;165.23;40.97;;;3.00;99.90;;;;;;12389030;28;20054;-85
2022/01/13 13:33:40;;;;;;;161.45;39.13;;;3.00;99.90;;;;;;12402075;28;20046;-86
2022/01/13 13:39:42;;;;;;;157.75;40.65;;;3.10;99.90;;;;;;12389182;28;20065;-85
2022/01/13 13:45:44;;;;;;;144.50;38.25;;;3.10;99.90;;;;;;12401429;28;20050;-85
2022/01/13 13:51:52;;;;;;;139.40;36.72;;;3.10;99.90;;;;;;12393356;28;20054;-85
2022/01/13 13:57:54;;;;;;;131.05;36.85;;;3.20;99.90;;;;;;12400099;28;20070;-86
2022/01/13 14:03:56;;;;;;;137.90;37.33;;;3.20;99.90;;;;;;12390541;28;20050;-85
2022/01/13 14:10:01;;;;;;;122.78;34.22;;;3.20;99.90;;;;;;12395971;28;20054;-84
2022/01/13 14:16:05;;;;;;;121.60;33.92;;;3.10;99.90;;;;;;12408206;28;20053;-84
2022/01/13 14:22:07;;;;;;;123.03;34.70;;;3.20;99.90;;;;;;12388731;28;20045;-87
2022/01/13 14:28:11;;;;;;;140.43;37.55;;;3.20;99.90;;;;;;12380273;28;20137;-85
2022/01/13 14:34:13;;;;;;;125.05;34.25;;;3.10;99.90;;;;;;12392319;28;20034;-85
2022/01/13 14:40:15;;;;;;;105.20;30.27;;;3.20;99.90;;;;;;12384684;28;20495;-86
2022/01/13 14:46:19;;;;;;;100.38;28.73;;;3.20;99.90;;;;;;12386291;28;20049;-86
2022/01/13 14:52:21;;;;;;;97.93;27.23;;;3.10;99.90;;;;;;12392407;28;20057;-86
2022/01/13 14:58:23;;;;;;;99.78;29.77;;;3.00;99.90;;;;;;12397074;28;20399;-84
2022/01/13 15:04:25;;;;;;;96.43;29.17;;;3.00;99.90;;;;;;12390625;28;20049;-86
2022/01/13 15:10:28;;;;;;;112.30;30.20;;;2.90;99.90;;;;;;12397287;28;20124;-86
2022/01/13 15:16:30;;;;;;;113.45;31.02;;;2.80;99.90;;;;;;12393437;28;20113;-86
2022/01/13 15:22:32;;;;;;;117.78;33.83;;;2.70;99.90;;;;;;12407882;28;20049;-85
2022/01/13 15:28:34;;;;;;;131.73;33.35;;;2.70;99.90;;;;;;12422790;28;20034;-84
2022/01/13 15:34:36;;;;;;;140.52;34.15;;;2.60;99.90;;;;;;12393456;28;20968;-85
2022/01/13 15:40:39;;;;;;;128.50;34.38;;;2.60;99.90;;;;;;12386137;28;20832;-84
2022/01/13 15:46:42;;;;;;;136.98;36.05;;;2.60;99.90;;;;;;12402866;28;20105;-85
2022/01/13 15:52:45;;;;;;;133.55;33.92;;;2.60;99.90;;;;;;12380749;28;20080;-85
2022/01/13 15:58:48;;;;;;;124.88;34.80;;;2.60;99.90;;;;;;12367408;28;20061;-86
2022/01/13 16:04:50;;;;;;;124.35;33.35;;;2.70;99.90;;;;;;12333336;28;20055;-84
2022/01/13 16:10:52;;;;;;;109.15;29.88;;;2.70;99.90;;;;;;12339177;28;20085;-86
2022/01/13 16:16:54;;;;;;;105.65;29.05;;;2.60;99.90;;;;;;12353603;28;20133;-85
2022/01/13 16:22:57;;;;;;;109.85;30.23;;;2.60;99.90;;;;;;12341769;28;20190;-84
2022/01/13 16:28:59;;;;;;;118.72;31.15;;;2.60;99.90;;;;;;12346553;28;20046;-85
2022/01/13 16:35:04;;;;;;;119.75;32.38;;;2.60;99.90;;;;;;12339442;28;20050;-86
2022/01/13 16:41:06;;;;;;;118.15;30.92;;;2.60;99.90;;;;;;12333802;28;20046;-86
2022/01/13 16:47:10;;;;;;;108.93;28.95;;;2.60;99.90;;;;;;12336718;28;20073;-85
2022/01/13 16:53:12;;;;;;;110.32;31.00;;;2.60;99.90;;;;;;12355999;28;20471;-84
2022/01/13 16:59:14;;;;;;;116.82;29.77;;;2.60;99.90;;;;;;12376751;28;20061;-85
2022/01/13 17:05:16;;;;;;;109.18;29.88;;;2.50;99.90;;;;;;12396948;28;20093;-86
2022/01/13 17:11:19;;;;;;;106.75;30.23;;;2.50;99.90;;;;;;12396413;28;20099;-84
2022/01/13 17:17:22;;;;;;;110.88;31.35;;;2.50;99.90;;;;;;12398888;28;20060;-83
2022/01/13 17:23:24;;;;;;;116.50;31.77;;;2.50;99.90;;;;;;12400459;28;20074;-85
2022/01/13 17:29:25;;;;;;;126.95;30.77;;;2.60;99.90;;;;;;12393003;28;20046;-84
2022/01/13 17:35:27;;;;;;;103.82;28.95;;;2.50;99.90;;;;;;12389198;28;20145;-85
2022/01/13 17:41:30;;;;;;;108.00;29.80;;;2.50;99.90;;;;;;12384332;28;20065;-85
2022/01/13 17:47:32;;;;;;;97.78;27.98;;;2.50;99.90;;;;;;12389157;28;20061;-84
2022/01/13 17:53:35;;;;;;;99.65;28.27;;;2.50;99.90;;;;;;12387716;28;20136;-84
2022/01/13 17:59:39;;;;;;;97.88;28.50;;;2.50;99.90;;;;;;12389996;28;20054;-86
2022/01/13 18:05:41;;;;;;;97.30;29.02;;;2.50;99.90;;;;;;12384864;28;20473;-86
2022/01/13 18:11:42;;;;;;;83.93;26.05;;;2.50;99.90;;;;;;12383348;28;20054;-85
2022/01/13 18:17:44;;;;;;;86.75;25.38;;;2.50;99.90;;;;;;12389471;28;20116;-86
2022/01/13 18:23:46;;;;;;;88.70;26.73;;;2.60;99.90;;;;;;12384538;28;20061;-85
2022/01/13 18:29:48;;;;;;;98.65;26.67;;;2.50;99.90;;;;;;12386663;28;20053;-86
2022/01/13 18:35:50;;;;;;;82.15;26.15;;;2.60;99.90;;;;;;12379872;28;20050;-84
2022/01/13 18:41:53;;;;;;;75.28;24.75;;;2.50;99.90;;;;;;12391431;28;20148;-85
2022/01/13 18:48:05;;;;;;;76.07;25.10;;;2.50;99.90;;;;;;12387668;28;20469;-86
2022/01/13 18:54:07;;;;;;;62.58;22.02;;;2.50;99.90;;;;;;12395367;28;20042;-86
2022/01/13 19:00:10;;;;;;;68.45;24.25;;;2.40;99.90;;;;;;12379061;28;20077;-86
2022/01/13 19:06:12;;;;;;;68.32;22.30;;;2.40;99.90;;;;;;12389120;28;20116;-84
2022/01/13 19:12:14;;;;;;;68.20;23.50;;;2.40;99.90;;;;;;12375587;28;20074;-84
2022/01/13 19:18:23;;;;;;;69.03;23.95;;;2.40;99.90;;;;;;12381294;28;20104;-84
2022/01/13 19:24:28;;;;;;;60.63;22.20;;;2.50;99.90;;;;;;12381468;28;20046;-84
2022/01/13 19:30:33;;;;;;;57.13;20.90;;;2.50;99.90;;;;;;12376163;28;20049;-86
2022/01/13 19:36:35;;;;;;;68.18;23.67;;;2.40;99.90;;;;;;12397249;28;20058;-84
2022/01/13 19:42:42;;;;;;;63.05;22.20;;;2.40;99.90;;;;;;12389400;28;20046;-86
2022/01/13 19:48:44;;;;;;;65.72;22.27;;;2.40;99.90;;;;;;12390573;28;20058;-85
2022/01/13 19:54:45;;;;;;;61.95;22.13;;;2.40;99.90;;;;;;12393235;28;20873;-84
2022/01/13 20:00:47;;;;;;;57.63;21.17;;;2.40;99.90;;;;;;12398416;28;20062;-85
2022/01/13 20:06:49;;;;;;;59.60;20.90;;;2.20;99.90;;;;;;12404131;28;21060;-84
2022/01/13 20:12:53;;;;;;;66.50;23.98;;;2.20;99.90;;;;;;12403007;28;20096;-84
2022/01/13 20:18:55;;;;;;;74.68;23.58;;;2.20;99.90;;;;;;12411890;28;20038;-85
2022/01/13 20:24:58;;;;;;;69.80;24.00;;;2.20;99.90;;;;;;12402254;28;20046;-84
2022/01/13 20:31:00;;;;;;;72.20;24.52;;;2.20;99.90;;;;;;12407793;28;20042;-84
2022/01/13 20:37:05;;;;;;;67.88;22.73;;;2.20;99.90;;;;;;12404366;28;20105;-85
2022/01/13 20:43:06;;;;;;;64.43;22.80;;;2.20;99.90;;;;;;12398719;28;20081;-86
2022/01/13 20:49:09;;;;;;;78.18;25.27;;;2.20;99.90;;;;;;12407853;28;20058;-85
2022/01/13 20:55:11;;;;;;;87.53;26.13;;;2.20;99.90;;;;;;12397870;28;20477;-84
2022/01/13 21:01:15;;;;;;;81.30;24.95;;;2.20;99.90;;;;;;12393569;28;20050;-84
2022/01/13 21:07:17;;;;;;;85.70;26.05;;;2.20;99.90;;;;;;12405135;28;20529;-84
2022/01/13 21:13:18;;;;;;;72.38;23.45;;;2.20;99.90;;;;;;12391027;28;20104;-85
2022/01/13 21:19:20;;;;;;;80.85;26.83;;;2.20;99.90;;;;;;12385953;28;20068;-85
2022/01/13 21:25:23;;;;;;;71.45;24.17;;;2.20;99.90;;;;;;12399118;28;20109;-85
2022/01/13 21:31:25;;;;;;;81.97;22.30;;;2.20;99.90;;;;;;12412791;28;20111;-85
2022/01/13 21:37:27;;;;;;;87.10;25.00;;;2.20;99.90;;;;;;12399010;28;21132;-84
2022/01/13 21:43:30;;;;;;;74.00;23.58;;;2.10;99.90;;;;;;12382470;28;20076;-86
2022/01/13 21:49:34;;;;;;;79.70;23.58;;;2.20;99.90;;;;;;12409589;28;20490;-85
2022/01/13 21:55:37;;;;;;;80.90;23.77;;;2.10;99.90;;;;;;12385731;28;20062;-86
2022/01/13 22:01:38;;;;;;;77.03;22.90;;;2.10;99.90;;;;;;12409393;28;20368;-84
2022/01/13 22:07:41;;;;;;;77.80;24.42;;;2.10;99.90;;;;;;12403116;28;20054;-84
2022/01/13 22:13:44;;;;;;;70.35;21.95;;;2.00;99.90;;;;;;12389389;28;20103;-86
2022/01/13 22:19:47;;;;;;;74.30;23.27;;;2.10;99.90;;;;;;12384440;28;20080;-85
2022/01/13 22:25:49;;;;;;;83.70;25.52;;;2.00;99.90;;;;;;12400932;28;20196;-85
2022/01/13 22:31:51;;;;;;;84.63;24.13;;;2.10;99.90;;;;;;12382026;28;20458;-86
2022/01/13 22:37:53;;;;;;;80.43;23.95;;;2.10;99.90;;;;;;12380115;28;20120;-86
2022/01/13 22:43:55;;;;;;;76.05;22.70;;;2.00;99.90;;;;;;12398356;28;20110;-85
2022/01/13 22:50:01;;;;;;;88.10;24.40;;;2.00;99.90;;;;;;12376288;28;20053;-86
2022/01/13 22:56:06;;;;;;;77.65;22.83;;;2.00;99.90;;;;;;12392262;28;20073;-85
2022/01/13 23:02:07;;;;;;;87.75;23.95;;;1.90;99.90;;;;;;12389985;28;20180;-86
2022/01/13 23:08:10;;;;;;;76.78;22.83;;;1.90;99.90;;;;;;12392606;28;20175;-85
2022/01/13 23:14:16;;;;;;;77.75;23.95;;;2.00;99.90;;;;;;12397690;28;20118;-83
2022/01/13 23:26:40;;;;;;;76.88;23.05;;;2.00;99.90;;;;;;12400267;28;20108;-84
2022/01/13 23:32:42;;;;;;;76.57;23.40;;;2.00;99.90;;;;;;12386137;28;20137;-85
2022/01/13 23:39:00;;;;;;;74.43;22.65;;;2.00;99.90;;;;;;12384444;28;20054;-85
2022/01/13 23:45:03;;;;;;;73.10;21.85;;;2.00;99.90;;;;;;12395064;28;20054;-86
2022/01/13 23:51:05;;;;;;;73.70;22.25;;;2.00;99.90;;;;;;12400662;28;20129;-84
2022/01/13 23:57:07;;;;;;;66.78;22.45;;;2.00;99.90;;;;;;12394300;28;20081;-85
